Hlavní strana
METAR-TAF:

METAR-TAF

Letiště :

Vidsel, Švédsko

zeměpisná šířka: 65-52N, zeměpisná délka: 020-08E, výška: 180 m

Aktuální stav počasí

Zpráva byla vytvořena před 23 minutami, v 04:50 UTC
vítr z různých směrů 1 kt
Teplota 4°C
Vlhkost vzduchu 93%
Tlak 1013 hPa
Viditelnost 10 km a více

METAR: ESPE 220450Z AUTO VRB01KT 9999 NCD 04/03 Q1013

Čas: 07:13 (05:13 UTC)


TAF: chybějící

Stav a předpovědi počasí z více než 4 000 letišť (zprávy METAR a TAF).

Červené a žluté tečky na mapě představují dostupné meteorologické stanice.

Když kurzor umístíte na tečku, zobrazí se název stanice.

Pak kliknutím zobrazíte stav a předpověď počasí.

Chcete-li změnit mapu, kliknutím na zelené tlačítko se znaménkem +mapu přiblížíte, kliknutím na zelené tlačítko se znaménkem – mapu oddálíte a kliknutím na zelené šipky přejdete na sousední mapy.


METAR-TAF: